Archival Weather

Tokyo Intl

Tokyo, Japan (RJTT)

Report from: Sunday, March 19, 2023 11:00 AM JST
Current time: Tuesday, February 27, 2024 6:23 PM JST

Current weather – Weather history – Daily summaries
Weather forecast

Temperature11.0°C (51.8°F)
Dew point0.0°C (32.0°F)
Winds 8 kts (4.1 m/s, 9.2 mph) East (90°)
Visibility6.2 mi. (10 km)
Clouds Few clouds 3,000 ft. (914 m)
Altimeter30.09 in.Hg (1019 mB)
Relative humidity47 %
Density altitude-577 ft. (-176 m)
Remarks No significant changes expected in the next two hours
Flight conditions Visual Meteorological Conditions
Raw dataRJTT 190200Z 09008KT 9999 FEW030 11/00 Q1019 NOSIG RMK 1CU030 A3010
An error has occurred. This application may no longer respond until reloaded. Reload 🗙